KMFD 050755Z 0508/0606 36007KT 2SM BR BKN003
FM051200 01008KT 4SM BR BKN030
FM051800 02009KT P6SM BKN018
FM060000 02010KT P6SM SCT015
From batch tds/tafs/production/2024/2/5/h08_m00_tafs.cache.xml.gz
Issued (18 days ago)
Forecasts
0508/0512 36007KT 2SM BKN300

---
wx_string: BR
fcst_time_to: '2024-02-05T12:00:00Z'
sky_condition:
- sky_cover: BKN
  cloud_base_ft_agl: '300'
wind_speed_kt: '7'
fcst_time_from: '2024-02-05T08:00:00Z'
wind_dir_degrees: '360'
visibility_statute_mi: '2'

FM051200 1008KT 4SM BKN3000

---
wx_string: BR
fcst_time_to: '2024-02-05T18:00:00Z'
sky_condition:
- sky_cover: BKN
  cloud_base_ft_agl: '3000'
wind_speed_kt: '8'
fcst_time_from: '2024-02-05T12:00:00Z'
change_indicator: FM
wind_dir_degrees: '10'
visibility_statute_mi: '4'

FM051800 2009KT 6+SM BKN1800

---
fcst_time_to: '2024-02-06T00:00:00Z'
sky_condition:
- sky_cover: BKN
  cloud_base_ft_agl: '1800'
wind_speed_kt: '9'
fcst_time_from: '2024-02-05T18:00:00Z'
change_indicator: FM
wind_dir_degrees: '20'
visibility_statute_mi: 6+

FM060000 2010KT 6+SM SCT1500

---
fcst_time_to: '2024-02-06T06:00:00Z'
sky_condition:
- sky_cover: SCT
  cloud_base_ft_agl: '1500'
wind_speed_kt: '10'
fcst_time_from: '2024-02-06T00:00:00Z'
change_indicator: FM
wind_dir_degrees: '20'
visibility_statute_mi: 6+

talk